PROFILE

 METAR AND TAF INFORMATION
ADDS - METARS form results

(0415 UTC 25 April 2019)
http://aviationweather.gov/metar/data/
 
LFKB 250400Z AUTO 23003KT 9999 FEW010 SCT016 OVC029 12/11 Q1018 NOSIG
LFKB 250330Z AUTO 23003KT 9999 FEW010 SCT027 12/11 Q1018 NOSIG
TAF LFKB 250200Z 2503/2603 24004KT CAVOK TX19/2512Z TN11/2503Z BECMG 2507/2510 14008KT SCT030 BECMG 2517/2520 24004KT TEMPO 2600/2603 BKN014 

 AIRPORT MAP

 RUNWAY INFORMATION
Runway 16 Runway length 8266 ft Runway width 148 ft
Runway elevation 13 ft Runway displaced threshold 0 ft Runway heading 163
Runway 34 Runway length 8266 ft Runway width 148 ft
Runway elevation 26 ft Runway displaced threshold 0 ft Runway heading 343

 AIRPORT FREQUENCIES
Type AFIS Name BASTIA INF Frequency 124.725 MHZ
Type APP Name BASTIA RAD Frequency 123.825 MHZ
Type ARR Name BASTIA APP Frequency 37.85 MHZ
Type ATIS Name BASTIA ATI Frequency 125.925 MHZ
Type GND Name GND Frequency 121.825 MHZ
Type TWR Name BASTIA TWR Frequency 118 MHZ

 AIRPORT NEAR NAVIGATION AIDS
Type VOR-DME Name Bastia Frequency 114150 KHZ